Time;durP1;ratioP1;P1;durP2;ratioP2;P2;SDS_P1;SDS_P2;PMS_P1;PMS_P2;Temp;Humidity;BMP_temperature;BMP_pressure;BME280_temperature;BME280_humidity;BME280_pressure;Samples;Min_cycle;Max_cycle;Signal;HPM_P1;HPM_P2
2023/03/06 00:02:55;;;;;;;26.10;13.30;;;;;;;-0.12;82.26;97893.88;136139;1289;22237;-78
2023/03/06 00:05:56;;;;;;;21.30;11.60;;;;;;;-0.08;82.09;97896.24;135506;1286;117967;-84
2023/03/06 00:08:57;;;;;;;22.20;12.50;;;;;;;-0.07;82.13;97893.20;135881;1282;22541;-85
2023/03/06 00:11:58;;;;;;;23.30;13.10;;;;;;;-0.10;81.78;97896.02;136434;1286;22204;-85
2023/03/06 00:14:59;;;;;;;23.30;11.90;;;;;;;-0.13;81.89;97890.07;135852;1286;22203;-85
2023/03/06 00:18:00;;;;;;;20.20;12.40;;;;;;;-0.15;82.06;97886.58;136363;1279;22653;-85
2023/03/06 00:21:01;;;;;;;23.90;13.30;;;;;;;-0.10;82.17;97887.60;136996;1278;22181;-84
2023/03/06 00:24:02;;;;;;;22.60;12.20;;;;;;;-0.06;82.34;97886.05;136363;1278;22176;-83
2023/03/06 00:27:03;;;;;;;24.60;12.00;;;;;;;-0.06;82.30;97885.54;136341;1278;22179;-83
2023/03/06 00:30:04;;;;;;;26.80;11.50;;;;;;;-0.06;82.21;97883.48;136735;1278;22544;-85
2023/03/06 00:33:05;;;;;;;20.00;10.40;;;;;;;-0.07;82.34;97885.17;136554;1278;22186;-83
2023/03/06 00:36:06;;;;;;;22.40;12.10;;;;;;;-0.08;81.98;97883.09;136382;1279;22194;-83
2023/03/06 00:39:07;;;;;;;19.50;10.70;;;;;;;-0.11;82.17;97885.88;136519;1278;22535;-86
2023/03/06 00:42:08;;;;;;;19.90;10.70;;;;;;;-0.14;82.12;97881.13;136749;1278;22182;-84
2023/03/06 00:45:10;;;;;;;19.60;11.80;;;;;;;-0.16;82.30;97875.08;136280;1278;22527;-84
2023/03/06 00:48:11;;;;;;;18.90;11.30;;;;;;;-0.14;82.36;97872.58;136398;1278;22558;-82
2023/03/06 00:51:12;;;;;;;19.60;11.40;;;;;;;-0.12;82.77;97874.20;136930;1278;22590;-84
2023/03/06 00:54:13;;;;;;;25.90;12.70;;;;;;;-0.10;82.60;97874.11;136377;1279;22190;-82
2023/03/06 00:57:14;;;;;;;19.70;12.20;;;;;;;-0.12;82.71;97874.02;136393;1279;22213;-82
2023/03/06 01:00:15;;;;;;;21.30;13.30;;;;;;;-0.13;82.80;97871.94;136931;1279;22691;-83
2023/03/06 01:03:16;;;;;;;22.10;12.10;;;;;;;-0.15;82.83;97869.48;136400;1279;22565;-83
2023/03/06 01:06:17;;;;;;;25.00;12.40;;;;;;;-0.19;82.65;97863.34;136308;1279;22155;-83
2023/03/06 01:09:18;;;;;;;23.30;13.30;;;;;;;-0.23;82.79;97867.44;136640;1279;22735;-87
2023/03/06 01:12:19;;;;;;;20.40;13.80;;;;;;;-0.27;83.11;97865.10;136620;1279;24270;-84
2023/03/06 01:15:20;;;;;;;24.30;13.60;;;;;;;-0.28;83.34;97863.33;136315;1279;22668;-84
2023/03/06 01:18:21;;;;;;;20.90;12.90;;;;;;;-0.32;83.29;97865.76;136552;1279;22543;-85
2023/03/06 01:21:22;;;;;;;22.70;13.70;;;;;;;-0.31;83.41;97861.50;136835;1279;22789;-83
2023/03/06 01:24:24;;;;;;;26.50;14.00;;;;;;;-0.29;83.81;97862.42;136333;1279;22566;-82
2023/03/06 01:27:25;;;;;;;22.80;12.80;;;;;;;-0.26;83.60;97859.99;136305;1279;22547;-83
2023/03/06 01:30:26;;;;;;;19.50;12.70;;;;;;;-0.28;83.59;97862.48;136981;1279;22159;-83
2023/03/06 01:33:27;;;;;;;23.40;13.30;;;;;;;-0.29;83.77;97860.73;136340;1279;22218;-82
2023/03/06 01:36:28;;;;;;;26.10;14.90;;;;;;;-0.27;83.63;97858.91;136370;1279;22224;-82
2023/03/06 01:39:30;;;;;;;28.00;14.20;;;;;;;-0.27;83.94;97860.99;136872;1279;22167;-86
2023/03/06 01:42:31;;;;;;;22.40;13.70;;;;;;;-0.24;83.85;97862.30;136447;1279;22571;-83
2023/03/06 01:45:32;;;;;;;30.90;16.30;;;;;;;-0.22;84.18;97859.64;136348;1279;22628;-83
2023/03/06 01:48:33;;;;;;;28.70;14.90;;;;;;;-0.22;84.08;97860.81;136662;1279;22546;-84
2023/03/06 01:51:34;;;;;;;29.60;17.00;;;;;;;-0.22;84.20;97858.77;136552;1279;22272;-83
2023/03/06 01:54:35;;;;;;;30.50;17.20;;;;;;;-0.30;84.20;97861.23;136372;1279;22924;-83
2023/03/06 01:57:36;;;;;;;28.30;15.10;;;;;;;-0.33;84.38;97856.30;136524;1279;22535;-85
2023/03/06 02:00:37;;;;;;;25.50;14.90;;;;;;;-0.38;84.49;97853.05;136740;1279;22154;-83
2023/03/06 02:03:38;;;;;;;34.20;16.10;;;;;;;-0.41;84.60;97851.04;136330;1279;22253;-83
2023/03/06 02:06:41;;;;;;;29.40;16.70;;;;;;;-0.43;84.48;97848.73;136358;1279;22543;-83
2023/03/06 02:09:42;;;;;;;31.40;17.70;;;;;;;-0.46;85.03;97848.64;136950;1279;22153;-84
2023/03/06 02:12:43;;;;;;;31.50;17.60;;;;;;;-0.44;84.87;97846.66;136353;1278;22173;-81
2023/03/06 02:15:45;;;;;;;34.60;18.80;;;;;;;-0.47;85.01;97841.75;136339;1279;22175;-84
2023/03/06 02:18:46;;;;;;;32.60;17.30;;;;;;;-0.46;85.04;97843.66;136920;1279;22531;-86
2023/03/06 02:21:47;;;;;;;30.30;16.80;;;;;;;-0.47;84.87;97847.03;136487;1279;22416;-83
2023/03/06 02:24:48;;;;;;;28.60;17.80;;;;;;;-0.48;85.01;97848.70;136290;1279;22168;-84
2023/03/06 02:27:49;;;;;;;31.40;18.30;;;;;;;-0.49;84.83;97847.46;136744;1279;22558;-84
2023/03/06 02:30:50;;;;;;;32.60;18.60;;;;;;;-0.49;85.04;97847.30;136569;1279;22254;-84
2023/03/06 02:33:51;;;;;;;29.70;18.40;;;;;;;-0.45;84.88;97846.25;136325;1279;22209;-84
2023/03/06 02:36:52;;;;;;;29.60;17.40;;;;;;;-0.39;84.84;97846.65;136505;1279;24296;-84
2023/03/06 02:39:53;;;;;;;27.40;18.00;;;;;;;-0.36;85.10;97843.20;136749;1279;22203;-83
2023/03/06 02:42:55;;;;;;;32.60;18.30;;;;;;;-0.34;85.00;97848.92;136368;1279;22226;-83
2023/03/06 02:45:56;;;;;;;28.70;16.60;;;;;;;-0.35;85.00;97847.33;136389;1278;22690;-82
2023/03/06 02:48:57;;;;;;;31.10;18.30;;;;;;;-0.38;84.53;97848.26;136986;1279;22327;-83
2023/03/06 02:51:58;;;;;;;31.00;16.80;;;;;;;-0.42;84.64;97845.70;136305;1279;22216;-83
2023/03/06 02:54:59;;;;;;;24.10;15.70;;;;;;;-0.44;84.82;97841.50;136260;1279;22888;-83
2023/03/06 02:58:00;;;;;;;27.20;15.80;;;;;;;-0.47;84.77;97841.74;136934;1278;22534;-84
2023/03/06 03:01:01;;;;;;;25.20;15.90;;;;;;;-0.51;84.74;97839.35;136406;1279;22217;-84
2023/03/06 03:04:02;;;;;;;31.20;16.60;;;;;;;-0.55;84.84;97836.13;136334;1279;22559;-84
2023/03/06 03:07:03;;;;;;;26.20;16.50;;;;;;;-0.60;84.57;97828.05;136643;1279;24710;-84
2023/03/06 03:10:04;;;;;;;25.70;16.80;;;;;;;-0.67;84.61;97833.29;136552;1279;22612;-84
2023/03/06 03:13:06;;;;;;;25.40;16.20;;;;;;;-0.75;84.79;97835.17;136680;1275;22245;-84
2023/03/06 03:16:07;;;;;;;24.90;16.40;;;;;;;-0.81;84.76;97838.85;136867;1275;22551;-84
2023/03/06 03:19:08;;;;;;;30.70;18.00;;;;;;;-0.87;85.04;97835.38;137143;1275;22210;-84
2023/03/06 03:22:09;;;;;;;29.60;15.70;;;;;;;-0.91;84.78;97835.70;136732;1275;22375;-85
2023/03/06 03:25:10;;;;;;;28.50;16.80;;;;;;;-0.97;84.48;97833.73;136681;1275;22563;-85
2023/03/06 03:28:11;;;;;;;32.30;17.10;;;;;;;-1.03;84.94;97837.44;137305;1275;22173;-85
2023/03/06 03:31:12;;;;;;;29.40;16.20;;;;;;;-1.09;84.72;97837.70;136760;1275;22195;-84
2023/03/06 03:34:13;;;;;;;26.60;16.60;;;;;;;-1.11;84.94;97838.48;136754;1274;22324;-84
2023/03/06 03:37:14;;;;;;;27.30;16.10;;;;;;;-1.10;84.99;97838.00;137269;1275;22538;-84
2023/03/06 03:40:15;;;;;;;28.50;17.00;;;;;;;-1.13;84.68;97833.11;136849;1275;22275;-82
2023/03/06 03:43:17;;;;;;;27.20;15.70;;;;;;;-1.16;84.57;97833.48;136779;1274;22185;-84
2023/03/06 03:46:18;;;;;;;30.90;16.70;;;;;;;-1.16;84.40;97828.19;137084;1275;24195;-84
2023/03/06 03:49:19;;;;;;;32.20;16.90;;;;;;;-1.14;84.57;97835.77;137086;1275;22220;-85
2023/03/06 03:52:20;;;;;;;29.50;16.30;;;;;;;-1.11;84.69;97831.13;136703;1275;22368;-85
2023/03/06 03:55:21;;;;;;;26.30;16.60;;;;;;;-1.03;84.93;97828.40;136945;1275;22540;-86
2023/03/06 03:58:22;;;;;;;29.10;16.80;;;;;;;-0.93;85.00;97829.61;137329;1275;22187;-85
2023/03/06 04:01:23;;;;;;;28.00;18.10;;;;;;;-0.87;84.91;97826.80;136866;1275;22217;-85
2023/03/06 04:04:24;;;;;;;36.70;18.20;;;;;;;-0.82;84.88;97823.46;136621;1275;22551;-82
2023/03/06 04:07:25;;;;;;;32.50;18.70;;;;;;;-0.77;84.98;97821.28;137353;1275;22375;-82
2023/03/06 04:10:26;;;;;;;31.70;18.70;;;;;;;-0.72;84.82;97822.52;136818;1275;22209;-84
2023/03/06 04:13:27;;;;;;;30.90;20.20;;;;;;;-0.67;85.01;97821.48;136916;1275;22262;-84
2023/03/06 04:16:28;;;;;;;37.30;19.80;;;;;;;-0.67;84.86;97822.85;137424;1274;22130;-84
2023/03/06 04:19:29;;;;;;;34.80;21.70;;;;;;;-0.63;85.28;97820.45;136737;1275;22230;-83
2023/03/06 04:22:30;;;;;;;32.10;19.80;;;;;;;-0.57;85.52;97818.43;136838;1275;22236;-85
2023/03/06 04:25:31;;;;;;;33.50;19.40;;;;;;;-0.52;85.38;97823.94;137131;1275;22559;-83
2023/03/06 04:28:32;;;;;;;32.10;18.60;;;;;;;-0.50;85.16;97824.00;136931;1275;22217;-84
2023/03/06 04:31:33;;;;;;;31.10;18.90;;;;;;;-0.47;85.76;97819.86;136716;1274;22265;-83
2023/03/06 04:34:35;;;;;;;32.80;19.20;;;;;;;-0.44;85.59;97818.09;136958;1274;22528;-83
2023/03/06 04:37:36;;;;;;;30.20;18.90;;;;;;;-0.43;85.53;97814.73;137068;1274;22223;-84
2023/03/06 04:40:37;;;;;;;30.90;19.40;;;;;;;-0.43;85.35;97819.51;136750;1274;23102;-83
2023/03/06 04:43:38;;;;;;;35.40;21.60;;;;;;;-0.49;85.50;97816.52;136831;1274;22541;-83
2023/03/06 04:46:39;;;;;;;32.90;20.40;;;;;;;-0.54;85.29;97814.98;137199;1275;22442;-83
2023/03/06 04:49:40;;;;;;;34.30;21.90;;;;;;;-0.56;85.49;97813.52;137327;1274;22263;-82
2023/03/06 04:52:41;;;;;;;31.40;20.10;;;;;;;-0.55;85.37;97808.78;137154;1274;22221;-83
2023/03/06 04:55:42;;;;;;;36.50;20.70;;;;;;;-0.55;85.53;97807.23;137351;1274;22818;-83
2023/03/06 04:58:43;;;;;;;42.70;22.20;;;;;;;-0.56;85.69;97808.75;137028;1274;22234;-83
2023/03/06 05:01:44;;;;;;;35.70;21.50;;;;;;;-0.54;85.63;97802.48;137331;1274;22277;-82
2023/03/06 05:04:45;;;;;;;41.00;22.70;;;;;;;-0.52;85.53;97803.42;137282;1275;22576;-82
2023/03/06 05:07:46;;;;;;;40.80;22.50;;;;;;;-0.52;85.61;97799.33;137146;1266;22224;-81
2023/03/06 05:10:47;;;;;;;38.20;23.00;;;;;;;-0.51;85.73;97792.70;137355;1275;22234;-81
2023/03/06 05:13:48;;;;;;;34.20;19.90;;;;;;;-0.53;85.46;97785.63;137321;1275;22148;-84
2023/03/06 05:16:49;;;;;;;29.70;19.80;;;;;;;-0.53;85.61;97783.59;137353;1274;22225;-83
2023/03/06 05:19:51;;;;;;;33.80;18.90;;;;;;;-0.51;85.74;97788.77;137360;1275;22225;-83
2023/03/06 05:22:52;;;;;;;28.40;17.50;;;;;;;-0.48;85.54;97794.38;137340;1275;23026;-82
2023/03/06 05:25:53;;;;;;;29.80;18.80;;;;;;;-0.42;85.63;97789.63;137278;1274;22214;-81
2023/03/06 05:28:54;;;;;;;30.30;19.30;;;;;;;-0.37;85.52;97786.40;137337;1275;22169;-81
2023/03/06 05:31:55;;;;;;;30.30;19.60;;;;;;;-0.32;85.61;97781.80;137311;1275;22267;-81
2023/03/06 05:34:56;;;;;;;27.90;19.00;;;;;;;-0.26;85.47;97782.54;137328;1274;22172;-84
2023/03/06 05:37:57;;;;;;;30.10;19.70;;;;;;;-0.22;85.36;97783.36;137367;1274;22337;-83
2023/03/06 05:40:59;;;;;;;33.20;19.10;;;;;;;-0.19;85.18;97784.48;137161;1275;22941;-83
2023/03/06 05:44:00;;;;;;;36.60;19.50;;;;;;;-0.17;85.14;97783.91;137214;1275;22617;-84
2023/03/06 05:47:01;;;;;;;36.80;22.70;;;;;;;-0.12;85.28;97785.95;137114;1274;22424;-81
2023/03/06 05:50:02;;;;;;;42.60;24.60;;;;;;;-0.10;84.80;97785.18;136947;1274;22610;-82
2023/03/06 05:53:03;;;;;;;64.20;27.00;;;;;;;-0.11;84.68;97785.30;137296;1274;22112;-82
2023/03/06 05:56:04;;;;;;;42.30;25.70;;;;;;;-0.09;84.99;97785.55;137298;1275;22230;-82
2023/03/06 05:59:05;;;;;;;41.40;26.10;;;;;;;-0.04;84.73;97785.38;137004;1274;22243;-81
2023/03/06 06:02:07;;;;;;;56.40;28.60;;;;;;;-0.02;84.34;97783.95;137148;1274;22705;-81
2023/03/06 06:05:08;;;;;;;36.50;23.90;;;;;;;0.02;84.78;97782.71;137271;1275;22218;-83
2023/03/06 06:08:09;;;;;;;36.10;22.70;;;;;;;0.06;84.25;97784.25;137376;1274;22233;-84
2023/03/06 06:11:11;;;;;;;55.90;23.70;;;;;;;0.09;84.18;97787.27;137367;1274;22144;-87
2023/03/06 06:14:13;;;;;;;39.30;21.60;;;;;;;0.11;84.08;97789.74;137321;1274;22166;-86
2023/03/06 06:17:15;;;;;;;40.40;23.70;;;;;;;0.12;84.00;97784.29;136917;1275;22404;-78
2023/03/06 06:20:16;;;;;;;34.50;22.80;;;;;;;0.15;83.96;97783.88;137127;1274;22515;-77
2023/03/06 06:23:17;;;;;;;36.00;22.80;;;;;;;0.22;84.20;97778.67;137350;1274;22092;-77
2023/03/06 06:26:19;;;;;;;40.60;23.30;;;;;;;0.28;83.91;97774.42;137270;1275;22976;-77
2023/03/06 06:29:20;;;;;;;40.30;23.40;;;;;;;0.31;83.80;97773.15;137278;1274;22190;-78
2023/03/06 06:32:21;;;;;;;40.80;24.60;;;;;;;0.34;83.84;97770.17;137299;1275;22082;-77
2023/03/06 06:35:22;;;;;;;40.80;25.50;;;;;;;0.38;84.03;97767.06;137239;1274;22193;-76
2023/03/06 06:38:23;;;;;;;50.20;29.20;;;;;;;0.42;83.96;97763.09;137293;1275;22357;-77
2023/03/06 06:41:24;;;;;;;48.20;28.60;;;;;;;0.44;84.25;97759.91;137293;1275;22202;-77
2023/03/06 06:44:25;;;;;;;44.70;27.50;;;;;;;0.46;84.11;97749.71;137251;1274;22696;-77
2023/03/06 06:47:26;;;;;;;36.30;22.60;;;;;;;0.45;84.23;97739.59;137237;1272;23070;-76
2023/03/06 06:50:27;;;;;;;40.00;24.30;;;;;;;0.48;84.42;97731.81;137172;1274;22692;-77
2023/03/06 06:53:28;;;;;;;41.10;23.50;;;;;;;0.58;84.58;97728.90;137204;1274;22681;-78
2023/03/06 06:56:29;;;;;;;38.30;25.40;;;;;;;0.70;84.22;97724.48;137227;1274;22920;-77
2023/03/06 06:59:31;;;;;;;44.30;26.80;;;;;;;0.78;83.96;97721.83;137270;1274;22178;-78
2023/03/06 07:02:32;;;;;;;38.50;26.30;;;;;;;0.85;83.81;97723.11;137289;1274;22107;-78
2023/03/06 07:05:33;;;;;;;44.00;28.00;;;;;;;0.92;83.62;97730.86;137315;1274;22244;-78
2023/03/06 07:08:36;;;;;;;43.50;24.50;;;;;;;0.98;83.56;97726.41;137325;1274;22265;-77
2023/03/06 07:11:37;;;;;;;36.70;22.60;;;;;;;1.02;83.24;97724.67;137270;1274;22820;-78
2023/03/06 07:14:40;;;;;;;44.50;25.40;;;;;;;1.00;83.02;97734.38;137307;1274;22174;-77
2023/03/06 07:17:45;;;;;;;37.10;20.90;;;;;;;1.00;83.30;97734.72;137338;1274;22268;-77
2023/03/06 07:20:49;;;;;;;52.20;25.60;;;;;;;1.00;82.93;97733.67;136836;1274;23034;-77
2023/03/06 07:23:50;;;;;;;41.20;23.10;;;;;;;0.99;83.14;97731.61;137318;1275;22166;-78
2023/03/06 07:26:51;;;;;;;62.60;27.70;;;;;;;1.04;83.12;97728.34;137303;1274;22266;-78
2023/03/06 07:29:52;;;;;;;41.20;23.90;;;;;;;1.12;83.17;97721.71;137345;1259;22275;-78
2023/03/06 07:32:53;;;;;;;35.20;21.40;;;;;;;1.22;82.93;97722.90;137322;1275;22123;-78
2023/03/06 07:35:54;;;;;;;34.70;20.90;;;;;;;1.33;82.67;97722.88;137317;1275;22744;-78
2023/03/06 07:38:55;;;;;;;33.40;19.60;;;;;;;1.46;82.53;97721.39;137320;1274;22180;-78
2023/03/06 07:41:57;;;;;;;44.20;23.40;;;;;;;1.58;82.23;97721.74;137328;1272;22299;-79
2023/03/06 07:44:58;;;;;;;44.00;23.50;;;;;;;1.59;81.78;97721.60;137340;1274;22652;-78
2023/03/06 07:47:59;;;;;;;36.70;21.90;;;;;;;1.64;81.74;97724.33;137345;1275;22973;-78
2023/03/06 07:51:00;;;;;;;47.00;20.70;;;;;;;1.78;81.69;97723.86;137304;1275;22270;-79
2023/03/06 07:54:01;;;;;;;42.90;22.00;;;;;;;1.85;81.27;97721.69;137283;1275;22911;-78
2023/03/06 07:57:02;;;;;;;71.70;29.20;;;;;;;1.98;81.13;97722.54;137314;1275;22212;-78
2023/03/06 08:00:03;;;;;;;44.40;25.90;;;;;;;2.07;81.01;97723.81;137298;1274;22242;-78
2023/03/06 08:03:04;;;;;;;40.00;23.10;;;;;;;2.16;80.69;97725.27;137275;1274;22072;-78
2023/03/06 08:06:05;;;;;;;44.50;24.30;;;;;;;2.32;80.52;97725.69;137304;1274;22253;-78
2023/03/06 08:09:06;;;;;;;51.80;24.20;;;;;;;2.34;80.10;97722.13;137315;1274;23036;-77
2023/03/06 08:12:08;;;;;;;57.90;27.60;;;;;;;2.32;79.85;97726.37;137313;1274;22169;-77
2023/03/06 08:15:09;;;;;;;42.20;24.70;;;;;;;2.36;79.88;97719.79;137297;1270;22244;-78
2023/03/06 08:18:10;;;;;;;45.20;25.60;;;;;;;2.44;79.90;97718.63;137290;1274;22156;-77
2023/03/06 08:21:11;;;;;;;44.50;25.70;;;;;;;2.41;79.75;97720.27;137293;1274;22185;-77
2023/03/06 08:24:15;;;;;;;56.70;25.30;;;;;;;2.29;79.83;97726.99;137260;1274;22234;-79
2023/03/06 08:27:19;;;;;;;42.30;25.90;;;;;;;2.29;80.37;97724.06;137291;1274;22188;-78
2023/03/06 08:30:20;;;;;;;47.40;25.20;;;;;;;2.31;80.49;97723.78;137364;1274;22245;-77
2023/03/06 08:33:21;;;;;;;42.30;27.10;;;;;;;2.35;80.61;97724.58;137313;1275;22113;-76
2023/03/06 08:36:23;;;;;;;41.00;25.20;;;;;;;2.42;80.83;97726.82;137345;1274;22157;-77
2023/03/06 08:39:24;;;;;;;86.10;47.40;;;;;;;2.50;80.59;97727.02;137302;1269;22187;-75
2023/03/06 08:42:25;;;;;;;55.20;29.40;;;;;;;2.64;81.01;97728.60;137252;1274;22170;-77
2023/03/06 08:45:26;;;;;;;50.20;28.60;;;;;;;2.71;80.74;97725.33;137302;1275;22225;-77
2023/03/06 08:48:27;;;;;;;45.30;28.00;;;;;;;2.84;80.65;97728.92;137074;1274;22207;-77
2023/03/06 08:51:28;;;;;;;50.40;27.60;;;;;;;3.07;80.14;97724.15;137257;1274;22188;-77
2023/03/06 08:54:29;;;;;;;85.60;42.70;;;;;;;3.28;79.53;97718.95;137186;1260;22172;-77
2023/03/06 08:57:31;;;;;;;80.30;39.00;;;;;;;3.49;79.09;97720.48;137066;1274;22445;-77
2023/03/06 09:00:32;;;;;;;58.50;31.50;;;;;;;3.68;78.83;97714.16;137293;1274;22237;-77
2023/03/06 09:03:33;;;;;;;86.30;42.50;;;;;;;3.85;77.95;97713.65;137251;1274;22110;-76
2023/03/06 09:06:34;;;;;;;54.00;31.80;;;;;;;3.99;77.83;97717.88;137258;1274;22159;-77
2023/03/06 09:09:35;;;;;;;75.80;39.70;;;;;;;4.24;77.97;97718.54;137196;1274;22289;-77
2023/03/06 09:12:37;;;;;;;35.50;25.00;;;;;;;4.57;76.47;97717.61;137320;1274;22108;-77
2023/03/06 09:15:38;;;;;;;35.90;24.00;;;;;;;4.82;76.24;97719.92;137305;1274;22290;-77
2023/03/06 09:18:39;;;;;;;30.90;22.50;;;;;;;4.97;75.05;97718.11;137350;1274;22282;-77
2023/03/06 09:21:40;;;;;;;28.80;20.60;;;;;;;4.96;75.46;97715.50;137344;1274;22500;-77
2023/03/06 09:24:41;;;;;;;22.80;17.80;;;;;;;5.02;75.73;97712.33;137293;1274;22160;-78
2023/03/06 09:27:42;;;;;;;20.10;16.40;;;;;;;5.01;75.61;97712.83;137273;1274;22171;-77
2023/03/06 09:30:43;;;;;;;23.00;18.50;;;;;;;4.83;75.03;97723.73;137292;1268;22692;-77
2023/03/06 09:33:44;;;;;;;22.20;18.70;;;;;;;4.68;75.69;97725.04;137280;1274;22262;-77
2023/03/06 09:36:45;;;;;;;20.60;17.60;;;;;;;4.55;75.96;97719.30;137298;1256;22266;-77
2023/03/06 09:39:47;;;;;;;25.20;20.30;;;;;;;4.30;76.67;97728.66;137318;1274;22878;-78
2023/03/06 09:42:48;;;;;;;24.70;20.70;;;;;;;4.23;77.37;97726.61;137319;1274;22283;-78
2023/03/06 09:45:49;;;;;;;25.30;20.70;;;;;;;4.33;77.85;97724.74;137379;1275;22233;-77
2023/03/06 09:48:50;;;;;;;19.80;17.60;;;;;;;4.46;77.66;97724.48;137367;1274;22236;-77
2023/03/06 09:51:51;;;;;;;25.10;18.60;;;;;;;4.60;77.70;97724.55;137324;1274;22102;-78
2023/03/06 09:54:52;;;;;;;19.60;16.10;;;;;;;4.79;77.09;97725.05;137270;1275;22331;-78
2023/03/06 09:57:54;;;;;;;24.50;19.10;;;;;;;4.72;76.29;97722.36;137314;1274;22181;-78
2023/03/06 10:00:55;;;;;;;18.70;16.00;;;;;;;4.84;77.07;97721.00;137311;1275;22095;-78
2023/03/06 10:03:56;;;;;;;19.50;16.00;;;;;;;4.96;77.33;97718.45;137303;1256;22303;-78
2023/03/06 10:06:57;;;;;;;21.70;17.40;;;;;;;5.13;77.50;97715.77;137344;1275;22687;-78
2023/03/06 10:09:58;;;;;;;20.10;17.50;;;;;;;5.41;77.14;97718.45;137333;1263;22306;-79
2023/03/06 10:12:59;;;;;;;19.30;17.10;;;;;;;5.51;75.60;97712.89;137318;1275;22233;-78
2023/03/06 10:16:00;;;;;;;22.10;19.20;;;;;;;5.79;75.70;97711.20;137294;1274;22759;-78
2023/03/06 10:19:01;;;;;;;15.70;14.20;;;;;;;6.13;74.01;97713.20;137280;1274;22184;-78
2023/03/06 10:22:03;;;;;;;18.10;15.10;;;;;;;6.12;72.09;97711.48;137324;1274;22547;-78
2023/03/06 10:25:06;;;;;;;18.00;15.50;;;;;;;6.08;71.90;97707.80;137299;1275;22717;-78
2023/03/06 10:28:07;;;;;;;15.20;13.40;;;;;;;6.06;70.85;97700.35;137263;1275;22217;-77
2023/03/06 10:31:08;;;;;;;15.20;13.20;;;;;;;5.98;69.58;97703.69;137277;1274;22098;-77
2023/03/06 10:34:09;;;;;;;21.30;16.30;;;;;;;5.94;70.50;97705.19;137225;1259;22359;-78
2023/03/06 10:37:10;;;;;;;14.40;12.90;;;;;;;6.10;70.70;97706.61;137272;1275;22847;-78
2023/03/06 10:40:11;;;;;;;13.40;11.20;;;;;;;6.16;69.98;97705.30;137282;1274;22262;-77
2023/03/06 10:43:12;;;;;;;12.70;11.10;;;;;;;6.12;69.12;97698.52;137277;1275;22232;-78
2023/03/06 10:46:13;;;;;;;13.80;11.60;;;;;;;6.05;68.81;97704.81;137334;1275;22224;-77
2023/03/06 10:49:14;;;;;;;16.20;11.60;;;;;;;6.00;68.34;97701.63;137326;1274;23150;-77
2023/03/06 10:52:15;;;;;;;17.90;13.10;;;;;;;6.04;69.66;97696.52;137331;1275;22082;-78
2023/03/06 10:55:16;;;;;;;19.90;15.40;;;;;;;6.13;67.78;97698.02;137322;1275;22333;-78
2023/03/06 10:58:18;;;;;;;16.90;12.70;;;;;;;6.20;67.77;97697.92;137299;1274;22237;-77
2023/03/06 11:01:19;;;;;;;18.20;13.70;;;;;;;6.23;68.09;97686.71;137290;1274;22143;-77
2023/03/06 11:04:20;;;;;;;18.40;14.20;;;;;;;6.02;66.38;97685.09;137304;1275;22171;-78
2023/03/06 11:07:21;;;;;;;14.20;12.70;;;;;;;5.85;65.78;97685.03;137346;1256;22245;-78
2023/03/06 11:10:23;;;;;;;19.70;13.50;;;;;;;5.70;67.07;97681.23;137266;1274;22144;-77
2023/03/06 11:13:24;;;;;;;13.80;11.20;;;;;;;5.66;66.38;97675.64;137258;1275;22225;-78
2023/03/06 11:16:25;;;;;;;15.20;12.00;;;;;;;5.62;65.75;97669.39;137286;1273;22166;-77
2023/03/06 11:19:26;;;;;;;20.60;12.50;;;;;;;5.65;66.12;97664.94;137321;1275;22224;-78
2023/03/06 11:22:27;;;;;;;18.70;14.60;;;;;;;5.72;65.47;97662.60;137329;1275;22187;-77
2023/03/06 11:25:29;;;;;;;14.20;11.00;;;;;;;5.82;65.16;97661.85;137333;1275;22418;-77
2023/03/06 11:28:30;;;;;;;13.70;11.10;;;;;;;5.86;64.95;97651.89;137347;1256;22242;-78
2023/03/06 11:31:31;;;;;;;12.30;9.20;;;;;;;6.00;63.31;97650.70;137347;1274;22107;-80
2023/03/06 11:34:35;;;;;;;11.60;8.70;;;;;;;6.11;63.71;97649.62;137316;1275;22208;-76
2023/03/06 11:37:36;;;;;;;12.70;9.30;;;;;;;6.33;64.28;97646.39;137314;1275;22694;-77
2023/03/06 11:40:37;;;;;;;11.70;10.20;;;;;;;6.48;62.03;97639.10;137321;1274;22131;-77
2023/03/06 11:43:39;;;;;;;14.70;11.20;;;;;;;6.49;63.03;97639.11;137325;1270;22274;-77
2023/03/06 11:46:40;;;;;;;14.80;10.70;;;;;;;6.60;62.73;97636.60;137333;1269;22251;-77
2023/03/06 11:49:41;;;;;;;9.90;8.40;;;;;;;6.77;62.55;97635.18;137313;1275;22268;-77
2023/03/06 11:52:43;;;;;;;11.10;8.10;;;;;;;6.94;60.21;97634.11;137324;1275;22398;-78
2023/03/06 11:55:44;;;;;;;7.90;6.90;;;;;;;7.08;60.31;97628.16;137343;1275;22729;-77
2023/03/06 11:58:45;;;;;;;9.60;7.80;;;;;;;7.15;59.04;97624.05;137321;1274;22593;-78
2023/03/06 12:01:46;;;;;;;12.90;9.50;;;;;;;7.20;58.43;97619.41;137304;1274;22105;-78
2023/03/06 12:04:47;;;;;;;8.50;7.00;;;;;;;7.23;58.90;97618.05;137279;1274;22195;-77
2023/03/06 12:07:48;;;;;;;7.20;5.80;;;;;;;7.39;57.90;97619.16;137119;1274;176134;-77
2023/03/06 12:10:49;;;;;;;8.10;5.90;;;;;;;7.35;57.10;97616.89;137291;1269;22113;-77
2023/03/06 12:13:50;;;;;;;9.80;6.20;;;;;;;7.28;54.59;97619.63;137300;1275;22210;-76
2023/03/06 12:16:51;;;;;;;12.70;8.20;;;;;;;7.17;54.94;97611.61;137339;1274;22249;-78
2023/03/06 12:19:52;;;;;;;10.20;7.50;;;;;;;7.05;54.47;97611.89;137312;1263;22088;-78
2023/03/06 12:22:54;;;;;;;12.20;8.00;;;;;;;6.94;54.53;97614.23;137318;1274;22768;-80
2023/03/06 12:25:55;;;;;;;19.00;10.20;;;;;;;6.90;55.19;97606.39;137353;1275;22282;-77
2023/03/06 12:28:56;;;;;;;7.30;5.60;;;;;;;7.05;55.32;97607.21;137319;1274;22197;-77
2023/03/06 12:31:57;;;;;;;14.10;5.90;;;;;;;7.20;55.19;97603.14;137330;1275;22335;-80
2023/03/06 12:34:58;;;;;;;10.90;6.60;;;;;;;7.38;55.42;97601.50;137276;1275;22818;-77
2023/03/06 12:38:00;;;;;;;7.60;6.40;;;;;;;7.41;53.43;97598.92;137278;1275;22769;-78
2023/03/06 12:41:01;;;;;;;7.30;6.30;;;;;;;7.33;52.55;97601.83;137246;1275;22713;-78
2023/03/06 12:44:02;;;;;;;9.40;6.40;;;;;;;7.29;52.71;97598.17;137309;1274;22480;-80
2023/03/06 12:47:03;;;;;;;8.30;6.80;;;;;;;7.28;52.69;97594.02;137292;1274;22196;-77
2023/03/06 12:50:04;;;;;;;11.60;7.40;;;;;;;7.33;53.38;97590.74;137302;1274;22184;-78
2023/03/06 12:53:05;;;;;;;10.10;6.80;;;;;;;7.28;51.77;97592.29;137300;1275;22174;-78
2023/03/06 12:56:06;;;;;;;13.10;8.60;;;;;;;7.15;53.13;97585.30;137318;1275;22337;-77
2023/03/06 12:59:08;;;;;;;11.60;7.70;;;;;;;7.22;54.53;97585.17;137310;1275;22712;-77
2023/03/06 13:02:09;;;;;;;16.40;8.90;;;;;;;7.33;53.96;97579.15;137286;1274;22253;-77
2023/03/06 13:05:10;;;;;;;13.00;6.80;;;;;;;7.40;54.24;97580.05;136747;1274;22485;-77
2023/03/06 13:08:13;;;;;;;8.10;5.60;;;;;;;7.41;53.10;97577.63;137326;1274;22216;-82
2023/03/06 13:11:17;;;;;;;8.10;6.60;;;;;;;7.32;53.42;97572.23;137270;1274;22860;-83
2023/03/06 13:14:18;;;;;;;8.60;6.00;;;;;;;7.33;53.47;97574.66;137229;1275;22209;-83
2023/03/06 13:17:19;;;;;;;12.90;7.60;;;;;;;7.26;52.22;97570.64;137277;1274;22347;-83
2023/03/06 13:20:20;;;;;;;9.60;6.20;;;;;;;7.19;52.88;97574.41;137213;1274;22638;-80
2023/03/06 13:23:21;;;;;;;8.50;7.40;;;;;;;7.18;53.57;97564.91;137260;1275;22215;-82
2023/03/06 13:26:23;;;;;;;8.90;6.10;;;;;;;7.21;53.75;97561.11;137290;1274;22178;-83
2023/03/06 13:29:24;;;;;;;9.00;5.90;;;;;;;7.16;53.48;97555.55;137253;1274;22134;-81
2023/03/06 13:32:25;;;;;;;9.10;6.50;;;;;;;7.21;52.96;97556.09;137214;1274;22297;-82
2023/03/06 13:35:27;;;;;;;10.10;6.40;;;;;;;7.16;53.10;97553.13;137255;1274;22287;-81
2023/03/06 13:38:28;;;;;;;12.40;6.50;;;;;;;7.16;53.61;97550.88;137270;1274;22313;-82
2023/03/06 13:41:29;;;;;;;10.60;7.70;;;;;;;7.01;52.07;97545.27;137220;1274;22142;-82
2023/03/06 13:44:30;;;;;;;12.80;7.40;;;;;;;6.97;53.33;97541.45;137312;1274;22241;-82
2023/03/06 13:47:31;;;;;;;19.30;11.20;;;;;;;7.04;53.83;97540.09;137311;1275;23094;-82
2023/03/06 13:50:32;;;;;;;18.30;7.90;;;;;;;7.05;53.36;97537.34;137258;1274;22310;-81